sensor_id;sensor_type;location;lat;lon;timestamp;pressure;altitude;pressure_sealevel;temperature;humidity
7180;BME280;3631;42.152;24.756;2023-05-01T00:00:01;148504.84;;;13.63;100.00
7180;BME280;3631;42.152;24.756;2023-05-01T00:02:44;148517.41;;;13.68;100.00
7180;BME280;3631;42.152;24.756;2023-05-01T00:09:01;148546.41;;;13.79;100.00
7180;BME280;3631;42.152;24.756;2023-05-01T00:12:01;148580.47;;;13.93;100.00
7180;BME280;3631;42.152;24.756;2023-05-01T00:14:47;148593.09;;;13.98;100.00
7180;BME280;3631;42.152;24.756;2023-05-01T00:17:32;148595.63;;;13.99;100.00
7180;BME280;3631;42.152;24.756;2023-05-01T00:20:36;148611.97;;;14.06;100.00
7180;BME280;3631;42.152;24.756;2023-05-01T00:23:32;148634.66;;;14.15;100.00
7180;BME280;3631;42.152;24.756;2023-05-01T00:26:38;148664.94;;;14.27;100.00
7180;BME280;3631;42.152;24.756;2023-05-01T00:29:33;148669.97;;;14.29;100.00
7180;BME280;3631;42.152;24.756;2023-05-01T00:32:27;148681.31;;;14.34;100.00
7180;BME280;3631;42.152;24.756;2023-05-01T00:35:19;148667.47;;;14.28;100.00
7180;BME280;3631;42.152;24.756;2023-05-01T00:38:13;148662.41;;;14.26;100.00
7180;BME280;3631;42.152;24.756;2023-05-01T00:41:05;148634.66;;;14.15;100.00
7180;BME280;3631;42.152;24.756;2023-05-01T00:43:56;148649.81;;;14.21;100.00
7180;BME280;3631;42.152;24.756;2023-05-01T00:46:56;148649.81;;;14.21;100.00
7180;BME280;3631;42.152;24.756;2023-05-01T00:49:54;148659.88;;;14.25;100.00
7180;BME280;3631;42.152;24.756;2023-05-01T00:52:59;148657.34;;;14.24;100.00
7180;BME280;3631;42.152;24.756;2023-05-01T00:56:21;148672.50;;;14.30;100.00
7180;BME280;3631;42.152;24.756;2023-05-01T00:59:28;148656.09;;;14.24;100.00
7180;BME280;3631;42.152;24.756;2023-05-01T01:02:32;148682.56;;;14.34;100.00
7180;BME280;3631;42.152;24.756;2023-05-01T01:05:29;148669.97;;;14.29;100.00
7180;BME280;3631;42.152;24.756;2023-05-01T01:08:29;148667.47;;;14.28;100.00
7180;BME280;3631;42.152;24.756;2023-05-01T01:11:39;148654.84;;;14.23;100.00
7180;BME280;3631;42.152;24.756;2023-05-01T01:14:54;148654.84;;;14.23;100.00
7180;BME280;3631;42.152;24.756;2023-05-01T01:18:06;148657.34;;;14.24;100.00
7180;BME280;3631;42.152;24.756;2023-05-01T01:21:13;148644.78;;;14.19;100.00
7180;BME280;3631;42.152;24.756;2023-05-01T01:24:41;148629.63;;;14.13;100.00
7180;BME280;3631;42.152;24.756;2023-05-01T01:28:20;148599.34;;;14.01;100.00
7180;BME280;3631;42.152;24.756;2023-05-01T01:31:56;148590.56;;;13.97;100.00
7180;BME280;3631;42.152;24.756;2023-05-01T01:35:11;148531.31;;;13.73;100.00
7180;BME280;3631;42.152;24.756;2023-05-01T01:38:08;148521.22;;;13.69;100.00
7180;BME280;3631;42.152;24.756;2023-05-01T01:41:05;148506.09;;;13.63;100.00
7180;BME280;3631;42.152;24.756;2023-05-01T01:44:03;148483.44;;;13.54;100.00
7180;BME280;3631;42.152;24.756;2023-05-01T01:47:06;148488.44;;;13.56;100.00
7180;BME280;3631;42.152;24.756;2023-05-01T01:50:18;148487.16;;;13.56;100.00
7180;BME280;3631;42.152;24.756;2023-05-01T01:53:16;148470.81;;;13.49;100.00
7180;BME280;3631;42.152;24.756;2023-05-01T01:56:05;148455.72;;;13.43;100.00
7180;BME280;3631;42.152;24.756;2023-05-01T01:59:04;148468.28;;;13.48;100.00
7180;BME280;3631;42.152;24.756;2023-05-01T02:02:02;148468.28;;;13.48;100.00
7180;BME280;3631;42.152;24.756;2023-05-01T02:04:49;148445.59;;;13.39;100.00
7180;BME280;3631;42.152;24.756;2023-05-01T02:08:13;148396.47;;;13.19;100.00
7180;BME280;3631;42.152;24.756;2023-05-01T02:10:53;148395.22;;;13.19;100.00
7180;BME280;3631;42.152;24.756;2023-05-01T02:13:38;148406.53;;;13.23;100.00
7180;BME280;3631;42.152;24.756;2023-05-01T02:16:39;148390.16;;;13.17;100.00
7180;BME280;3631;42.152;24.756;2023-05-01T02:19:36;148358.63;;;13.04;100.00
7180;BME280;3631;42.152;24.756;2023-05-01T02:22:33;148333.44;;;12.94;100.00
7180;BME280;3631;42.152;24.756;2023-05-01T02:25:46;148343.53;;;12.98;100.00
7180;BME280;3631;42.152;24.756;2023-05-01T02:28:47;148359.88;;;13.04;100.00
7180;BME280;3631;42.152;24.756;2023-05-01T02:31:59;148353.56;;;13.02;100.00
7180;BME280;3631;42.152;24.756;2023-05-01T02:35:06;148352.31;;;13.01;100.00
7180;BME280;3631;42.152;24.756;2023-05-01T02:37:57;148352.31;;;13.01;100.00
7180;BME280;3631;42.152;24.756;2023-05-01T02:41:07;148369.97;;;13.08;100.00
7180;BME280;3631;42.152;24.756;2023-05-01T02:44:09;148339.75;;;12.96;100.00
7180;BME280;3631;42.152;24.756;2023-05-01T02:46:59;148339.75;;;12.96;100.00
7180;BME280;3631;42.152;24.756;2023-05-01T02:49:45;148337.22;;;12.95;100.00
7180;BME280;3631;42.152;24.756;2023-05-01T02:52:48;148333.44;;;12.94;100.00
7180;BME280;3631;42.152;24.756;2023-05-01T02:55:45;148346.00;;;12.99;100.00
7180;BME280;3631;42.152;24.756;2023-05-01T02:58:22;148344.72;;;12.98;100.00
7180;BME280;3631;42.152;24.756;2023-05-01T03:01:16;148327.13;;;12.91;100.00
7180;BME280;3631;42.152;24.756;2023-05-01T03:04:15;148317.03;;;12.87;100.00
7180;BME280;3631;42.152;24.756;2023-05-01T03:07:16;148281.78;;;12.73;100.00
7180;BME280;3631;42.152;24.756;2023-05-01T03:10:06;148262.88;;;12.65;100.00
7180;BME280;3631;42.152;24.756;2023-05-01T03:13:21;148254.09;;;12.62;100.00
7180;BME280;3631;42.152;24.756;2023-05-01T03:16:08;148266.66;;;12.67;100.00
7180;BME280;3631;42.152;24.756;2023-05-01T03:18:48;148289.31;;;12.76;100.00
7180;BME280;3631;42.152;24.756;2023-05-01T03:21:55;148288.06;;;12.76;100.00
7180;BME280;3631;42.152;24.756;2023-05-01T03:24:40;148267.91;;;12.67;100.00
7180;BME280;3631;42.152;24.756;2023-05-01T03:27:10;148266.66;;;12.67;100.00
7180;BME280;3631;42.152;24.756;2023-05-01T03:29:52;148261.59;;;12.65;100.00
7180;BME280;3631;42.152;24.756;2023-05-01T03:32:28;148252.81;;;12.61;100.00
7180;BME280;3631;42.152;24.756;2023-05-01T03:35:10;148223.84;;;12.50;100.00
7180;BME280;3631;42.152;24.756;2023-05-01T03:37:58;148221.34;;;12.49;100.00
7180;BME280;3631;42.152;24.756;2023-05-01T03:40:35;148246.50;;;12.59;100.00
7180;BME280;3631;42.152;24.756;2023-05-01T03:43:26;148264.13;;;12.66;100.00
7180;BME280;3631;42.152;24.756;2023-05-01T03:49:20;148322.06;;;12.89;100.00
7180;BME280;3631;42.152;24.756;2023-05-01T03:51:55;148377.50;;;13.12;100.00
7180;BME280;3631;42.152;24.756;2023-05-01T03:54:27;148427.94;;;13.32;100.00
7180;BME280;3631;42.152;24.756;2023-05-01T03:57:04;148487.16;;;13.56;100.00
7180;BME280;3631;42.152;24.756;2023-05-01T03:59:45;148638.47;;;14.16;100.00
7180;BME280;3631;42.152;24.756;2023-05-01T04:02:41;148921.06;;;15.30;100.00
7180;BME280;3631;42.152;24.756;2023-05-01T04:05:29;149329.00;;;16.94;100.00
7180;BME280;3631;42.152;24.756;2023-05-01T04:08:36;149681.75;;;18.35;96.11
7180;BME280;3631;42.152;24.756;2023-05-01T04:11:35;150148.84;;;20.22;86.42
7180;BME280;3631;42.152;24.756;2023-05-01T04:14:36;150470.75;;;21.51;80.40
7180;BME280;3631;42.152;24.756;2023-05-01T04:17:33;150780.22;;;22.75;74.63
7180;BME280;3631;42.152;24.756;2023-05-01T04:20:45;151133.13;;;24.16;69.09
7180;BME280;3631;42.152;24.756;2023-05-01T04:24:05;151562.69;;;25.87;62.00
7180;BME280;3631;42.152;24.756;2023-05-01T04:27:06;151833.66;;;26.95;56.70
7180;BME280;3631;42.152;24.756;2023-05-01T04:30:08;152083.09;;;27.95;53.20
7180;BME280;3631;42.152;24.756;2023-05-01T04:32:59;152244.81;;;28.59;50.81
7180;BME280;3631;42.152;24.756;2023-05-01T04:35:44;152356.94;;;29.04;48.94
7180;BME280;3631;42.152;24.756;2023-05-01T04:38:18;152448.69;;;29.40;47.76
7180;BME280;3631;42.152;24.756;2023-05-01T04:40:52;152560.81;;;29.85;45.67
7180;BME280;3631;42.152;24.756;2023-05-01T04:43:34;152546.81;;;29.79;45.07
7180;BME280;3631;42.152;24.756;2023-05-01T04:46:06;152511.13;;;29.65;44.81
7180;BME280;3631;42.152;24.756;2023-05-01T04:48:54;152377.34;;;29.12;44.64
7180;BME280;3631;42.152;24.756;2023-05-01T04:51:57;152435.88;;;29.35;45.02
7180;BME280;3631;42.152;24.756;2023-05-01T04:54:55;152458.91;;;29.44;44.53
7180;BME280;3631;42.152;24.756;2023-05-01T04:58:02;152662.81;;;30.25;43.13
7180;BME280;3631;42.152;24.756;2023-05-01T05:00:43;152685.78;;;30.35;42.00
7180;BME280;3631;42.152;24.756;2023-05-01T05:03:50;152769.97;;;30.68;41.23
7180;BME280;3631;42.152;24.756;2023-05-01T05:06:31;152822.22;;;30.89;40.17
7180;BME280;3631;42.152;24.756;2023-05-01T05:09:09;152894.94;;;31.18;39.32
7180;BME280;3631;42.152;24.756;2023-05-01T05:11:54;153099.06;;;31.99;37.45
7180;BME280;3631;42.152;24.756;2023-05-01T05:14:42;152914.09;;;31.25;38.04
7180;BME280;3631;42.152;24.756;2023-05-01T05:17:45;152846.44;;;30.98;38.37
7180;BME280;3631;42.152;24.756;2023-05-01T05:20:46;152729.09;;;30.52;39.37
7180;BME280;3631;42.152;24.756;2023-05-01T05:23:47;152727.81;;;30.51;39.05
7180;BME280;3631;42.152;24.756;2023-05-01T05:26:57;153002.09;;;31.60;37.14
7180;BME280;3631;42.152;24.756;2023-05-01T05:29:38;153132.25;;;32.12;35.33
7180;BME280;3631;42.152;24.756;2023-05-01T05:32:17;153242.03;;;32.56;34.90
7180;BME280;3631;42.152;24.756;2023-05-01T05:34:57;153356.97;;;33.01;33.63
7180;BME280;3631;42.152;24.756;2023-05-01T05:37:31;153330.16;;;32.91;33.92
7180;BME280;3631;42.152;24.756;2023-05-01T05:40:17;153359.53;;;33.02;33.74
7180;BME280;3631;42.152;24.756;2023-05-01T05:42:56;153208.84;;;32.42;34.02
7180;BME280;3631;42.152;24.756;2023-05-01T05:45:34;152887.31;;;31.15;35.76
7180;BME280;3631;42.152;24.756;2023-05-01T05:48:10;152808.16;;;30.83;36.92
7180;BME280;3631;42.152;24.756;2023-05-01T05:51:03;152897.50;;;31.19;36.58
7180;BME280;3631;42.152;24.756;2023-05-01T05:53:58;152974.00;;;31.49;36.01
7180;BME280;3631;42.152;24.756;2023-05-01T05:56:53;153124.59;;;32.09;34.53
7180;BME280;3631;42.152;24.756;2023-05-01T06:00:03;153372.25;;;33.07;33.21
7180;BME280;3631;42.152;24.756;2023-05-01T06:02:39;153452.78;;;33.39;32.26
7180;BME280;3631;42.152;24.756;2023-05-01T06:05:11;153298.25;;;32.78;32.99
7180;BME280;3631;42.152;24.756;2023-05-01T06:07:48;153142.47;;;32.16;33.95
7180;BME280;3631;42.152;24.756;2023-05-01T06:10:27;153244.59;;;32.57;33.81
7180;BME280;3631;42.152;24.756;2023-05-01T06:12:57;153298.25;;;32.78;33.26
7180;BME280;3631;42.152;24.756;2023-05-01T06:15:27;153445.13;;;33.36;32.89
7180;BME280;3631;42.152;24.756;2023-05-01T06:18:06;153569.03;;;33.85;32.21
7180;BME280;3631;42.152;24.756;2023-05-01T06:20:34;153455.34;;;33.40;31.96
7180;BME280;3631;42.152;24.756;2023-05-01T06:23:33;153411.91;;;33.23;32.91
7180;BME280;3631;42.152;24.756;2023-05-01T06:26:19;153502.56;;;33.59;32.74
7180;BME280;3631;42.152;24.756;2023-05-01T06:28:55;153461.69;;;33.43;32.40
7180;BME280;3631;42.152;24.756;2023-05-01T06:32:08;153350.56;;;32.99;32.75
7180;BME280;3631;42.152;24.756;2023-05-01T06:35:06;153146.31;;;32.18;34.08
7180;BME280;3631;42.152;24.756;2023-05-01T06:38:04;152952.31;;;31.40;35.10
7180;BME280;3631;42.152;24.756;2023-05-01T06:40:51;153003.34;;;31.61;35.26
7180;BME280;3631;42.152;24.756;2023-05-01T06:43:43;153147.59;;;32.18;33.84
7180;BME280;3631;42.152;24.756;2023-05-01T06:46:29;153188.44;;;32.34;34.55
7180;BME280;3631;42.152;24.756;2023-05-01T06:48:59;153211.41;;;32.43;33.54
7180;BME280;3631;42.152;24.756;2023-05-01T06:51:41;153171.88;;;32.28;33.20
7180;BME280;3631;42.152;24.756;2023-05-01T06:54:32;153221.63;;;32.47;32.56
7180;BME280;3631;42.152;24.756;2023-05-01T06:57:15;153170.59;;;32.27;33.31
7180;BME280;3631;42.152;24.756;2023-05-01T07:00:10;153180.78;;;32.31;33.00
7180;BME280;3631;42.152;24.756;2023-05-01T07:03:10;153228.03;;;32.50;32.18
7180;BME280;3631;42.152;24.756;2023-05-01T07:06:12;153104.19;;;32.01;32.62
7180;BME280;3631;42.152;24.756;2023-05-01T07:09:11;153041.66;;;31.76;32.52
7180;BME280;3631;42.152;24.756;2023-05-01T07:11:59;153071.00;;;31.88;33.06
7180;BME280;3631;42.152;24.756;2023-05-01T07:14:59;153063.34;;;31.85;32.29
7180;BME280;3631;42.152;24.756;2023-05-01T07:18:02;153142.47;;;32.16;31.64
7180;BME280;3631;42.152;24.756;2023-05-01T07:20:56;153312.31;;;32.84;31.14
7180;BME280;3631;42.152;24.756;2023-05-01T07:26:58;153477.03;;;33.49;29.80
7180;BME280;3631;42.152;24.756;2023-05-01T07:29:48;153671.25;;;34.26;28.91
7180;BME280;3631;42.152;24.756;2023-05-01T07:32:53;153770.88;;;34.66;28.35
7180;BME280;3631;42.152;24.756;2023-05-01T07:36:01;153575.41;;;33.88;30.34
7180;BME280;3631;42.152;24.756;2023-05-01T07:39:05;153629.03;;;34.09;28.96
7180;BME280;3631;42.152;24.756;2023-05-01T07:42:05;153612.44;;;34.03;29.12
7180;BME280;3631;42.152;24.756;2023-05-01T07:45:04;153580.50;;;33.90;28.94
7180;BME280;3631;42.152;24.756;2023-05-01T07:48:04;153740.28;;;34.53;28.46
7180;BME280;3631;42.152;24.756;2023-05-01T07:51:05;153703.19;;;34.39;27.62
7180;BME280;3631;42.152;24.756;2023-05-01T07:54:04;153714.66;;;34.43;27.57
7180;BME280;3631;42.152;24.756;2023-05-01T07:57:05;153724.91;;;34.47;28.01
7180;BME280;3631;42.152;24.756;2023-05-01T07:59:59;153714.66;;;34.43;27.85
7180;BME280;3631;42.152;24.756;2023-05-01T08:03:05;153710.88;;;34.42;28.13
7180;BME280;3631;42.152;24.756;2023-05-01T08:06:11;153607.34;;;34.01;28.34
7180;BME280;3631;42.152;24.756;2023-05-01T08:09:13;153371.03;;;33.07;30.12
7180;BME280;3631;42.152;24.756;2023-05-01T08:12:12;153464.25;;;33.44;29.36
7180;BME280;3631;42.152;24.756;2023-05-01T08:15:12;153328.88;;;32.90;31.11
7180;BME280;3631;42.152;24.756;2023-05-01T08:17:56;153388.88;;;33.14;30.39
7180;BME280;3631;42.152;24.756;2023-05-01T08:20:50;153326.31;;;32.89;30.16
7180;BME280;3631;42.152;24.756;2023-05-01T08:23:55;153155.25;;;32.21;31.39
7180;BME280;3631;42.152;24.756;2023-05-01T08:26:51;153111.84;;;32.04;30.82
7180;BME280;3631;42.152;24.756;2023-05-01T08:30:00;153193.56;;;32.36;30.05
7180;BME280;3631;42.152;24.756;2023-05-01T08:32:41;153152.72;;;32.20;30.12
7180;BME280;3631;42.152;24.756;2023-05-01T08:35:12;153065.91;;;31.86;30.40
7180;BME280;3631;42.152;24.756;2023-05-01T08:37:55;152994.44;;;31.57;30.71
7180;BME280;3631;42.152;24.756;2023-05-01T08:40:49;152930.66;;;31.32;30.94
7180;BME280;3631;42.152;24.756;2023-05-01T08:43:37;152813.28;;;30.85;32.04
7180;BME280;3631;42.152;24.756;2023-05-01T08:46:19;152750.81;;;30.60;32.37
7180;BME280;3631;42.152;24.756;2023-05-01T08:49:19;152646.25;;;30.19;31.63
7180;BME280;3631;42.152;24.756;2023-05-01T08:52:11;152504.75;;;29.63;32.60
7180;BME280;3631;42.152;24.756;2023-05-01T08:55:06;152263.94;;;28.67;32.31
7180;BME280;3631;42.152;24.756;2023-05-01T08:58:03;152322.53;;;28.90;34.40
7180;BME280;3631;42.152;24.756;2023-05-01T09:00:59;152430.84;;;29.33;34.97
7180;BME280;3631;42.152;24.756;2023-05-01T09:03:51;152439.72;;;29.37;34.87
7180;BME280;3631;42.152;24.756;2023-05-01T09:06:33;152158.22;;;28.25;36.43
7180;BME280;3631;42.152;24.756;2023-05-01T09:09:06;152167.16;;;28.28;36.28
7180;BME280;3631;42.152;24.756;2023-05-01T09:11:44;152227.00;;;28.52;37.00
7180;BME280;3631;42.152;24.756;2023-05-01T09:14:17;152072.91;;;27.91;37.44
7180;BME280;3631;42.152;24.756;2023-05-01T09:16:50;152042.34;;;27.78;38.06
7180;BME280;3631;42.152;24.756;2023-05-01T09:19:34;152065.31;;;27.88;34.44
7180;BME280;3631;42.152;24.756;2023-05-01T09:22:15;152015.63;;;27.68;36.79
7180;BME280;3631;42.152;24.756;2023-05-01T09:25:06;152032.19;;;27.74;36.74
7180;BME280;3631;42.152;24.756;2023-05-01T09:27:47;152075.44;;;27.92;37.05
7180;BME280;3631;42.152;24.756;2023-05-01T09:30:39;152183.69;;;28.35;38.41
7180;BME280;3631;42.152;24.756;2023-05-01T09:33:14;152144.25;;;28.19;37.21
7180;BME280;3631;42.152;24.756;2023-05-01T09:35:56;152000.38;;;27.62;37.89
7180;BME280;3631;42.152;24.756;2023-05-01T09:38:36;152005.47;;;27.64;39.05
7180;BME280;3631;42.152;24.756;2023-05-01T09:41:22;152020.72;;;27.70;39.45
7180;BME280;3631;42.152;24.756;2023-05-01T09:43:54;152030.94;;;27.74;38.59
7180;BME280;3631;42.152;24.756;2023-05-01T09:46:40;152044.91;;;27.79;38.74
7180;BME280;3631;42.152;24.756;2023-05-01T09:49:19;152016.91;;;27.68;38.43
7180;BME280;3631;42.152;24.756;2023-05-01T09:52:10;151981.22;;;27.54;38.42
7180;BME280;3631;42.152;24.756;2023-05-01T09:54:44;152069.06;;;27.89;37.96
7180;BME280;3631;42.152;24.756;2023-05-01T09:57:46;151967.25;;;27.48;37.36
7180;BME280;3631;42.152;24.756;2023-05-01T10:00:28;152058.94;;;27.85;36.03
7180;BME280;3631;42.152;24.756;2023-05-01T10:03:17;151931.59;;;27.34;37.68
7180;BME280;3631;42.152;24.756;2023-05-01T10:06:04;151953.22;;;27.43;37.39
7180;BME280;3631;42.152;24.756;2023-05-01T10:09:01;151976.16;;;27.52;37.09
7180;BME280;3631;42.152;24.756;2023-05-01T10:11:55;152024.56;;;27.71;36.62
7180;BME280;3631;42.152;24.756;2023-05-01T10:14:40;152094.53;;;27.99;35.96
7180;BME280;3631;42.152;24.756;2023-05-01T10:17:37;151931.59;;;27.34;37.53
7180;BME280;3631;42.152;24.756;2023-05-01T10:20:25;151750.94;;;26.62;37.60
7180;BME280;3631;42.152;24.756;2023-05-01T10:23:08;151637.72;;;26.17;38.58
7180;BME280;3631;42.152;24.756;2023-05-01T10:25:56;151581.78;;;25.95;39.25
7180;BME280;3631;42.152;24.756;2023-05-01T10:28:34;151415.22;;;25.28;39.71
7180;BME280;3631;42.152;24.756;2023-05-01T10:31:16;151349.16;;;25.02;39.98
7180;BME280;3631;42.152;24.756;2023-05-01T10:34:01;151341.53;;;24.99;40.65
7180;BME280;3631;42.152;24.756;2023-05-01T10:36:51;151384.75;;;25.16;40.51
7180;BME280;3631;42.152;24.756;2023-05-01T10:39:34;151340.25;;;24.99;41.68
7180;BME280;3631;42.152;24.756;2023-05-01T10:42:12;151288.13;;;24.78;42.57
7180;BME280;3631;42.152;24.756;2023-05-01T10:44:41;151216.97;;;24.49;41.21
7180;BME280;3631;42.152;24.756;2023-05-01T10:47:47;151120.44;;;24.11;42.06
7180;BME280;3631;42.152;24.756;2023-05-01T10:50:22;151115.38;;;24.09;42.99
7180;BME280;3631;42.152;24.756;2023-05-01T10:53:25;151063.31;;;23.88;43.39
7180;BME280;3631;42.152;24.756;2023-05-01T10:55:55;150990.94;;;23.59;43.42
7180;BME280;3631;42.152;24.756;2023-05-01T10:59:05;151006.19;;;23.65;44.19
7180;BME280;3631;42.152;24.756;2023-05-01T11:01:46;150988.44;;;23.58;43.33
7180;BME280;3631;42.152;24.756;2023-05-01T11:04:51;151041.75;;;23.79;43.47
7180;BME280;3631;42.152;24.756;2023-05-01T11:07:51;151070.94;;;23.91;42.86
7180;BME280;3631;42.152;24.756;2023-05-01T11:10:38;151060.78;;;23.87;42.69
7180;BME280;3631;42.152;24.756;2023-05-01T11:13:09;151032.84;;;23.76;42.36
7180;BME280;3631;42.152;24.756;2023-05-01T11:16:01;151007.47;;;23.66;42.38
7180;BME280;3631;42.152;24.756;2023-05-01T11:19:07;151055.69;;;23.85;44.18
7180;BME280;3631;42.152;24.756;2023-05-01T11:21:40;151079.81;;;23.95;43.94
7180;BME280;3631;42.152;24.756;2023-05-01T11:24:12;151070.94;;;23.91;42.60
7180;BME280;3631;42.152;24.756;2023-05-01T11:26:52;151045.56;;;23.81;44.52
7180;BME280;3631;42.152;24.756;2023-05-01T11:29:40;151034.13;;;23.76;43.74
7180;BME280;3631;42.152;24.756;2023-05-01T11:32:24;151063.31;;;23.88;43.89
7180;BME280;3631;42.152;24.756;2023-05-01T11:35:00;151021.41;;;23.71;48.89
7180;BME280;3631;42.152;24.756;2023-05-01T11:37:48;150962.97;;;23.48;49.18
7180;BME280;3631;42.152;24.756;2023-05-01T11:40:22;150950.28;;;23.43;49.08
7180;BME280;3631;42.152;24.756;2023-05-01T11:43:12;150937.59;;;23.38;48.53
7180;BME280;3631;42.152;24.756;2023-05-01T11:45:56;150913.47;;;23.28;49.78
7180;BME280;3631;42.152;24.756;2023-05-01T11:49:05;150931.28;;;23.35;49.02
7180;BME280;3631;42.152;24.756;2023-05-01T11:52:10;150864.00;;;23.08;48.37
7180;BME280;3631;42.152;24.756;2023-05-01T11:55:08;150848.78;;;23.02;48.53
7180;BME280;3631;42.152;24.756;2023-05-01T11:58:19;150834.81;;;22.97;49.09
7180;BME280;3631;42.152;24.756;2023-05-01T12:04:47;150803.09;;;22.84;48.71
7180;BME280;3631;42.152;24.756;2023-05-01T12:07:40;150782.81;;;22.76;49.28
7180;BME280;3631;42.152;24.756;2023-05-01T12:10:42;150764.97;;;22.69;48.88
7180;BME280;3631;42.152;24.756;2023-05-01T12:13:48;150734.56;;;22.57;49.56
7180;BME280;3631;42.152;24.756;2023-05-01T12:16:49;150744.69;;;22.61;49.50
7180;BME280;3631;42.152;24.756;2023-05-01T12:20:04;150747.22;;;22.62;48.55
7180;BME280;3631;42.152;24.756;2023-05-01T12:23:07;150770.06;;;22.71;48.67
7180;BME280;3631;42.152;24.756;2023-05-01T12:29:24;150846.25;;;23.01;47.61
7180;BME280;3631;42.152;24.756;2023-05-01T12:32:32;150851.28;;;23.03;46.01
7180;BME280;3631;42.152;24.756;2023-05-01T12:35:40;150847.53;;;23.02;46.47
7180;BME280;3631;42.152;24.756;2023-05-01T12:38:33;150856.38;;;23.05;45.47
7180;BME280;3631;42.152;24.756;2023-05-01T12:41:43;150860.19;;;23.07;45.34
7180;BME280;3631;42.152;24.756;2023-05-01T12:47:50;150841.16;;;22.99;44.70
7180;BME280;3631;42.152;24.756;2023-05-01T12:50:58;150842.44;;;23.00;44.80
7180;BME280;3631;42.152;24.756;2023-05-01T12:53:44;150814.53;;;22.89;43.23
7180;BME280;3631;42.152;24.756;2023-05-01T12:56:53;150803.09;;;22.84;43.11
7180;BME280;3631;42.152;24.756;2023-05-01T13:00:10;150758.66;;;22.66;42.66
7180;BME280;3631;42.152;24.756;2023-05-01T13:02:56;150719.31;;;22.51;43.42
7180;BME280;3631;42.152;24.756;2023-05-01T13:06:15;150762.47;;;22.68;42.91
7180;BME280;3631;42.152;24.756;2023-05-01T13:09:04;150762.47;;;22.68;43.38
7180;BME280;3631;42.152;24.756;2023-05-01T13:12:15;150762.47;;;22.68;46.68
7180;BME280;3631;42.152;24.756;2023-05-01T13:14:54;150752.31;;;22.64;47.95
7180;BME280;3631;42.152;24.756;2023-05-01T13:17:53;150775.13;;;22.73;48.69
7180;BME280;3631;42.152;24.756;2023-05-01T13:20:55;150771.31;;;22.71;49.25
7180;BME280;3631;42.152;24.756;2023-05-01T13:24:12;150768.78;;;22.70;47.01
7180;BME280;3631;42.152;24.756;2023-05-01T13:26:44;150761.19;;;22.67;47.80
7180;BME280;3631;42.152;24.756;2023-05-01T13:29:18;150738.34;;;22.58;48.65
7180;BME280;3631;42.152;24.756;2023-05-01T13:31:58;150742.16;;;22.60;47.65
7180;BME280;3631;42.152;24.756;2023-05-01T13:34:31;150739.59;;;22.59;47.05
7180;BME280;3631;42.152;24.756;2023-05-01T13:37:16;150721.88;;;22.52;46.25
7180;BME280;3631;42.152;24.756;2023-05-01T13:40:01;150721.88;;;22.52;47.15
7180;BME280;3631;42.152;24.756;2023-05-01T13:42:42;150726.94;;;22.54;46.33
7180;BME280;3631;42.152;24.756;2023-05-01T13:45:11;150719.31;;;22.51;47.30
7180;BME280;3631;42.152;24.756;2023-05-01T13:47:51;150709.16;;;22.46;47.21
7180;BME280;3631;42.152;24.756;2023-05-01T13:50:23;150691.41;;;22.39;46.53
7180;BME280;3631;42.152;24.756;2023-05-01T13:52:56;150705.41;;;22.45;46.72
7180;BME280;3631;42.152;24.756;2023-05-01T13:55:50;150695.22;;;22.41;45.68
7180;BME280;3631;42.152;24.756;2023-05-01T13:58:39;150696.50;;;22.41;44.10
7180;BME280;3631;42.152;24.756;2023-05-01T14:01:40;150699.03;;;22.42;42.73
7180;BME280;3631;42.152;24.756;2023-05-01T14:04:33;150699.03;;;22.42;42.75
7180;BME280;3631;42.152;24.756;2023-05-01T14:07:26;150688.88;;;22.38;42.45
7180;BME280;3631;42.152;24.756;2023-05-01T14:10:12;150662.25;;;22.28;41.55
7180;BME280;3631;42.152;24.756;2023-05-01T14:13:30;150671.13;;;22.31;39.18
7180;BME280;3631;42.152;24.756;2023-05-01T14:16:19;150681.25;;;22.35;39.28
7180;BME280;3631;42.152;24.756;2023-05-01T14:19:15;150678.75;;;22.34;38.80
7180;BME280;3631;42.152;24.756;2023-05-01T14:22:09;150681.25;;;22.35;39.11
7180;BME280;3631;42.152;24.756;2023-05-01T14:25:14;150697.78;;;22.42;38.84
7180;BME280;3631;42.152;24.756;2023-05-01T14:28:07;150697.78;;;22.42;38.53
7180;BME280;3631;42.152;24.756;2023-05-01T14:31:01;150704.13;;;22.44;38.99
7180;BME280;3631;42.152;24.756;2023-05-01T14:33:47;150683.78;;;22.36;39.17
7180;BME280;3631;42.152;24.756;2023-05-01T14:36:38;150700.31;;;22.43;39.65
7180;BME280;3631;42.152;24.756;2023-05-01T14:39:25;150686.34;;;22.37;39.56
7180;BME280;3631;42.152;24.756;2023-05-01T14:41:55;150681.25;;;22.35;39.56
7180;BME280;3631;42.152;24.756;2023-05-01T14:44:29;150690.16;;;22.39;39.67
7180;BME280;3631;42.152;24.756;2023-05-01T14:47:05;150683.78;;;22.36;39.79
7180;BME280;3631;42.152;24.756;2023-05-01T14:50:17;150693.97;;;22.40;40.55
7180;BME280;3631;42.152;24.756;2023-05-01T14:53:06;150688.88;;;22.38;40.62
7180;BME280;3631;42.152;24.756;2023-05-01T14:56:21;150702.84;;;22.44;40.17
7180;BME280;3631;42.152;24.756;2023-05-01T14:59:36;150678.75;;;22.34;40.25
7180;BME280;3631;42.152;24.756;2023-05-01T15:02:59;150662.25;;;22.28;40.69
7180;BME280;3631;42.152;24.756;2023-05-01T15:05:48;150643.25;;;22.20;39.20
7180;BME280;3631;42.152;24.756;2023-05-01T15:08:42;150655.91;;;22.25;40.37
7180;BME280;3631;42.152;24.756;2023-05-01T15:11:49;150643.25;;;22.20;40.66
7180;BME280;3631;42.152;24.756;2023-05-01T15:14:54;150625.47;;;22.13;41.41
7180;BME280;3631;42.152;24.756;2023-05-01T15:17:54;150633.09;;;22.16;41.79
7180;BME280;3631;42.152;24.756;2023-05-01T15:21:03;150609.00;;;22.06;42.52
7180;BME280;3631;42.152;24.756;2023-05-01T15:24:19;150603.91;;;22.04;42.56
7180;BME280;3631;42.152;24.756;2023-05-01T15:27:20;150587.41;;;21.98;42.81
7180;BME280;3631;42.152;24.756;2023-05-01T15:30:10;150592.53;;;22.00;43.42